Time;durP1;ratioP1;P1;durP2;ratioP2;P2;SDS_P1;SDS_P2;PMS_P1;PMS_P2;Temp;Humidity;BMP_temperature;BMP_pressure;BME280_temperature;BME280_humidity;BME280_pressure;Samples;Min_cycle;Max_cycle;Signal;HPM_P1;HPM_P2
2022/08/04 00:03:58;;;;;;;4.78;4.15;;;22.70;99.90;;;;;;10467988;28;20226;-79
2022/08/04 00:09:58;;;;;;;7.22;5.35;;;22.60;99.90;;;;;;10459342;28;20205;-79
2022/08/04 00:15:20;;;;;;;8.27;5.88;;;22.60;99.90;;;;;;10497782;28;20250;-79
2022/08/04 00:20:42;;;;;;;6.00;4.50;;;22.60;1.00;;;;;;10474690;28;20275;-79
2022/08/04 00:26:03;;;;;;;5.18;4.07;;;22.60;1.00;;;;;;10471947;28;20235;-80
2022/08/04 00:31:26;;;;;;;4.28;3.45;;;22.50;1.00;;;;;;10440909;28;20192;-79
2022/08/04 00:36:48;;;;;;;7.40;4.47;;;22.20;1.00;;;;;;10453545;28;20208;-79
2022/08/04 00:42:40;;;;;;;5.80;4.20;;;22.20;1.00;;;;;;10448896;28;20198;-79
2022/08/04 00:48:20;;;;;;;4.68;4.10;;;22.10;1.00;;;;;;10480112;28;20222;-79
2022/08/04 00:53:59;;;;;;;6.95;4.55;;;22.10;98.00;;;;;;10479868;28;20413;-79
2022/08/04 00:59:49;;;;;;;8.82;5.10;;;22.10;99.90;;;;;;10480766;28;20188;-78
2022/08/04 01:05:30;;;;;;;4.85;4.20;;;22.00;99.90;;;;;;10480789;28;20246;-79
2022/08/04 01:11:36;;;;;;;6.40;4.43;;;22.00;99.90;;;;;;10481147;28;20196;-79
2022/08/04 01:17:06;;;;;;;4.63;3.97;;;21.80;1.00;;;;;;10477192;28;20196;-79
2022/08/04 01:22:27;;;;;;;4.93;3.80;;;21.80;1.00;;;;;;10465824;28;20203;-78
2022/08/04 01:28:09;;;;;;;5.30;4.20;;;21.70;80.90;;;;;;10480336;28;20191;-79
2022/08/04 01:33:33;;;;;;;6.13;3.85;;;21.60;99.90;;;;;;10492688;28;20499;-79
2022/08/04 01:38:55;;;;;;;5.35;4.03;;;21.60;99.90;;;;;;10458318;28;20394;-78
2022/08/04 01:44:18;;;;;;;5.45;4.35;;;21.50;1.00;;;;;;10466473;28;20230;-78
2022/08/04 01:49:43;;;;;;;4.47;3.85;;;21.50;1.00;;;;;;10479200;28;20184;-79
2022/08/04 01:55:08;;;;;;;4.15;3.75;;;21.50;99.90;;;;;;10479003;28;20222;-78
2022/08/04 02:00:30;;;;;;;6.85;3.67;;;21.50;99.90;;;;;;10435930;28;20271;-79
2022/08/04 02:06:16;;;;;;;5.50;3.90;;;21.40;1.00;;;;;;10444397;28;20219;-79
2022/08/04 02:11:41;;;;;;;5.50;4.53;;;21.40;1.00;;;;;;10477599;28;20238;-79
2022/08/04 02:17:10;;;;;;;5.32;3.90;;;21.30;44.10;;;;;;10462869;28;20199;-78
2022/08/04 02:22:33;;;;;;;4.88;3.50;;;21.30;99.90;;;;;;10465013;28;20528;-79
2022/08/04 02:27:55;;;;;;;5.63;3.85;;;21.20;99.90;;;;;;10477529;28;20512;-79
2022/08/04 02:33:22;;;;;;;5.28;4.00;;;21.10;1.00;;;;;;10477987;28;20191;-79
2022/08/04 02:38:46;;;;;;;5.30;3.95;;;21.20;11.20;;;;;;10447112;28;20417;-79
2022/08/04 02:44:09;;;;;;;5.20;4.05;;;21.00;99.90;;;;;;10463393;28;20258;-79
2022/08/04 02:49:35;;;;;;;4.95;3.92;;;21.00;1.00;;;;;;10476107;28;20191;-79
2022/08/04 02:55:00;;;;;;;5.80;4.53;;;21.00;1.00;;;;;;10462316;28;20200;-79
2022/08/04 03:00:21;;;;;;;5.53;3.72;;;21.00;99.90;;;;;;10476598;28;20188;-79
2022/08/04 03:06:04;;;;;;;5.57;4.35;;;21.00;1.00;;;;;;10489852;28;20257;-79
2022/08/04 03:11:40;;;;;;;6.07;4.13;;;20.90;1.00;;;;;;10492043;28;20203;-78
2022/08/04 03:17:20;;;;;;;6.38;4.10;;;20.90;1.00;;;;;;10492881;28;20278;-79
2022/08/04 03:23:06;;;;;;;5.22;4.15;;;20.90;1.00;;;;;;10448329;28;20294;-78
2022/08/04 03:28:53;;;;;;;5.85;3.97;;;20.90;1.00;;;;;;10475252;28;20188;-79
2022/08/04 03:34:42;;;;;;;6.03;4.78;;;20.90;99.90;;;;;;10461257;28;20275;-77
2022/08/04 03:40:33;;;;;;;5.75;4.18;;;20.90;99.90;;;;;;10420269;28;20211;-79
2022/08/04 03:46:35;;;;;;;7.07;5.13;;;21.00;1.00;;;;;;10433198;28;20224;-79
2022/08/04 03:58:01;;;;;;;7.15;4.93;;;21.00;99.90;;;;;;10481970;28;20509;-79
2022/08/04 04:03:41;;;;;;;10.13;5.38;;;21.10;99.90;;;;;;10483087;28;20207;-78
2022/08/04 04:09:22;;;;;;;8.10;5.22;;;21.10;99.90;;;;;;10499122;28;20207;-78
2022/08/04 04:15:04;;;;;;;9.70;5.60;;;21.10;99.90;;;;;;10482079;28;20228;-79
2022/08/04 04:20:32;;;;;;;8.27;5.65;;;21.20;99.90;;;;;;10476642;28;20283;-79
2022/08/04 04:26:05;;;;;;;6.63;5.22;;;21.20;99.90;;;;;;10465084;28;20274;-79
2022/08/04 04:31:48;;;;;;;9.43;6.28;;;21.30;99.90;;;;;;10468784;28;20405;-79
2022/08/04 04:37:13;;;;;;;9.43;6.55;;;21.40;99.90;;;;;;10481802;28;20526;-78
2022/08/04 04:42:50;;;;;;;9.05;6.88;;;21.40;99.90;;;;;;10478969;28;20458;-79
2022/08/04 04:48:37;;;;;;;8.88;7.60;;;21.60;1.00;;;;;;10481479;28;20203;-79
2022/08/04 04:54:17;;;;;;;7.65;6.72;;;21.70;1.00;;;;;;10480487;28;20358;-79
2022/08/04 04:59:52;;;;;;;7.43;6.50;;;21.80;1.00;;;;;;10439905;28;20259;-79
2022/08/04 05:05:19;;;;;;;6.97;6.05;;;21.90;1.00;;;;;;10437565;28;20259;-78
2022/08/04 05:10:59;;;;;;;9.45;6.57;;;22.00;1.00;;;;;;10459668;28;20246;-79
2022/08/04 05:16:23;;;;;;;10.57;7.57;;;22.20;1.00;;;;;;10479578;28;20231;-79
2022/08/04 05:22:01;;;;;;;8.32;6.47;;;22.30;99.90;;;;;;10466817;28;20491;-79
2022/08/04 05:27:44;;;;;;;7.00;5.78;;;22.50;84.80;;;;;;10478459;28;20240;-79
2022/08/04 05:33:10;;;;;;;10.68;5.85;;;22.70;1.00;;;;;;10478439;28;20199;-79
2022/08/04 05:38:36;;;;;;;11.32;5.78;;;22.70;1.00;;;;;;10477393;28;20498;-79
2022/08/04 05:43:58;;;;;;;7.32;6.55;;;22.80;1.00;;;;;;10482300;28;20219;-80
2022/08/04 05:49:25;;;;;;;6.38;5.78;;;22.80;1.00;;;;;;10478026;28;20192;-79
2022/08/04 05:54:49;;;;;;;9.00;6.72;;;22.90;1.00;;;;;;10463089;28;20208;-80
2022/08/04 06:00:11;;;;;;;10.07;7.38;;;23.00;99.90;;;;;;10494654;28;20206;-80
2022/08/04 06:05:47;;;;;;;7.10;6.20;;;23.20;99.90;;;;;;10462916;28;20269;-79
2022/08/04 06:11:10;;;;;;;10.43;6.45;;;23.40;1.00;;;;;;10477779;28;20188;-80
2022/08/04 06:16:37;;;;;;;17.67;6.60;;;23.70;99.90;;;;;;10477914;28;20265;-80
2022/08/04 06:22:01;;;;;;;7.30;5.53;;;24.00;1.00;;;;;;10477625;28;20275;-80
2022/08/04 06:27:23;;;;;;;7.53;6.30;;;24.50;99.90;;;;;;10492688;28;20242;-82
2022/08/04 06:32:54;;;;;;;9.35;7.05;;;24.90;1.00;;;;;;10477626;28;20195;-82
2022/08/04 06:38:15;;;;;;;5.88;5.28;;;25.40;99.90;;;;;;10462587;28;20195;-80
2022/08/04 06:43:38;;;;;;;6.57;5.88;;;26.00;1.00;;;;;;10470475;28;20219;-82
2022/08/04 06:49:00;;;;;;;8.85;5.85;;;26.70;1.00;;;;;;10476159;28;20259;-83
2022/08/04 06:54:21;;;;;;;5.47;4.53;;;27.40;99.90;;;;;;10492189;28;20199;-82
2022/08/04 06:59:44;;;;;;;8.45;4.80;;;;;;;;;;10435199;28;20214;-80
2022/08/04 07:05:07;;;;;;;6.43;4.72;;;29.10;1.00;;;;;;10419949;28;20303;-81
2022/08/04 07:10:30;;;;;;;5.00;4.47;;;29.90;99.90;;;;;;10453117;28;20230;-80
2022/08/04 07:15:52;;;;;;;8.18;4.82;;;30.40;99.90;;;;;;10476275;28;20561;-81
2022/08/04 07:21:20;;;;;;;6.15;4.15;;;30.80;1.00;;;;;;10463044;28;20201;-81
2022/08/04 07:26:43;;;;;;;13.07;8.77;;;31.40;1.00;;;;;;10474936;28;20232;-79
2022/08/04 07:32:05;;;;;;;8.82;5.13;;;31.60;1.00;;;;;;10463329;28;20484;-86
2022/08/04 07:37:27;;;;;;;6.30;4.60;;;32.20;1.00;;;;;;10451061;28;20207;-83
2022/08/04 07:42:49;;;;;;;20.13;11.77;;;32.50;1.00;;;;;;10478086;28;20196;-83
2022/08/04 07:48:11;;;;;;;5.97;4.85;;;32.70;1.00;;;;;;10463487;28;20234;-94
2022/08/04 07:53:34;;;;;;;5.28;3.70;;;33.20;1.00;;;;;;10475553;28;20196;-82
2022/08/04 07:58:55;;;;;;;6.03;4.13;;;33.40;1.00;;;;;;10476773;28;20506;-79
2022/08/04 08:04:17;;;;;;;9.77;3.75;;;33.60;1.00;;;;;;10477159;28;20298;-79
2022/08/04 08:09:39;;;;;;;7.30;4.32;;;34.20;1.00;;;;;;10490605;28;20258;-80
2022/08/04 08:15:02;;;;;;;5.15;3.88;;;34.50;99.90;;;;;;10475003;28;20231;-88
2022/08/04 08:20:30;;;;;;;6.05;4.10;;;34.80;99.90;;;;;;10473692;28;20207;-82
2022/08/04 08:25:53;;;;;;;4.28;3.40;;;34.70;99.90;;;;;;10464746;28;20584;-84
2022/08/04 08:31:15;;;;;;;5.35;3.60;;;35.20;99.90;;;;;;10495230;28;20244;-83
2022/08/04 08:36:49;;;;;;;5.18;3.33;;;35.40;99.90;;;;;;10480956;28;20237;-82
2022/08/04 08:42:43;;;;;;;8.38;3.35;;;35.80;99.90;;;;;;10460433;28;20212;-78
2022/08/04 08:48:16;;;;;;;6.72;3.17;;;;;;;;;;10462871;28;20263;-81
2022/08/04 08:54:08;;;;;;;10.60;3.53;;;36.20;99.90;;;;;;10452259;28;20207;-82
2022/08/04 08:59:56;;;;;;;6.72;2.92;;;36.80;99.90;;;;;;10460564;28;20199;-82
2022/08/04 09:05:47;;;;;;;11.65;3.20;;;36.80;99.90;;;;;;10417195;28;20244;-85
2022/08/04 09:11:19;;;;;;;7.10;3.00;;;36.90;99.90;;;;;;10385398;28;20263;-82
2022/08/04 09:17:02;;;;;;;5.40;3.08;;;37.10;99.90;;;;;;10391793;28;20590;-80
2022/08/04 09:23:14;;;;;;;4.05;2.78;;;37.20;99.90;;;;;;10416877;28;20258;-82
2022/08/04 09:29:24;;;;;;;4.30;3.05;;;37.50;99.90;;;;;;10269195;28;20220;-82
2022/08/04 09:35:23;;;;;;;3.72;2.80;;;37.50;99.90;;;;;;10178441;29;20212;-81
2022/08/04 09:41:12;;;;;;;4.53;2.83;;;37.60;99.90;;;;;;10201459;29;20588;-84
2022/08/04 09:46:42;;;;;;;4.63;2.78;;;38.00;99.90;;;;;;10244968;29;20250;-82
2022/08/04 09:52:21;;;;;;;6.00;3.17;;;38.00;99.90;;;;;;10245611;28;20494;-84
2022/08/04 09:57:48;;;;;;;3.22;2.80;;;37.60;99.90;;;;;;10232597;29;20416;-82
2022/08/04 10:03:14;;;;;;;5.95;3.15;;;38.10;99.90;;;;;;10336106;28;20516;-84
2022/08/04 10:09:11;;;;;;;26.35;3.83;;;38.40;99.90;;;;;;10398075;28;20216;-85
2022/08/04 10:14:43;;;;;;;3.22;2.92;;;38.60;99.90;;;;;;10488601;28;20234;-82
2022/08/04 10:20:36;;;;;;;4.47;3.20;;;38.50;99.90;;;;;;10469907;28;22961;-79
2022/08/04 10:26:26;;;;;;;3.40;2.75;;;38.50;99.90;;;;;;10435373;28;20220;-79
2022/08/04 10:31:58;;;;;;;5.95;4.03;;;38.80;99.90;;;;;;10471853;28;20200;-82
2022/08/04 10:37:35;;;;;;;11.35;3.47;;;38.70;99.90;;;;;;10473361;28;20192;-85
2022/08/04 10:43:26;;;;;;;6.30;3.05;;;38.70;98.50;;;;;;10443728;28;20208;-81
2022/08/04 10:49:07;;;;;;;3.38;2.63;;;38.80;99.70;;;;;;10442937;28;20211;-79
2022/08/04 10:54:57;;;;;;;26.05;4.28;;;38.90;96.90;;;;;;10488074;28;20270;-79
2022/08/04 11:00:27;;;;;;;57.92;6.05;;;38.90;91.40;;;;;;10485247;28;20257;-85
2022/08/04 11:05:55;;;;;;;3.42;2.47;;;39.00;65.30;;;;;;10462605;28;20273;-81
2022/08/04 11:11:28;;;;;;;6.10;2.92;;;39.00;65.10;;;;;;10440369;28;20213;-79
2022/08/04 11:17:32;;;;;;;5.72;2.70;;;38.80;67.00;;;;;;10464723;28;20204;-82
2022/08/04 11:23:18;;;;;;;3.17;2.88;;;39.20;63.20;;;;;;10405444;28;20274;-83
2022/08/04 11:28:54;;;;;;;5.00;3.20;;;39.20;99.90;;;;;;10402209;28;20318;-84
2022/08/04 11:34:22;;;;;;;3.63;2.83;;;39.30;99.90;;;;;;10421494;28;20208;-85
2022/08/04 11:39:50;;;;;;;6.28;3.40;;;38.70;99.90;;;;;;10421416;28;20212;-81
2022/08/04 11:45:29;;;;;;;2.50;2.30;;;38.60;99.90;;;;;;10392108;28;20238;-89
2022/08/04 11:50:52;;;;;;;6.63;3.15;;;38.90;99.90;;;;;;10404328;28;20217;-83
2022/08/04 11:56:14;;;;;;;4.40;3.25;;;38.50;99.90;;;;;;10409036;28;20215;-81
2022/08/04 12:01:57;;;;;;;5.63;3.00;;;38.30;99.90;;;;;;10493835;28;20199;-85
2022/08/04 12:07:21;;;;;;;6.35;3.35;;;38.20;99.90;;;;;;10464144;28;20219;-82
2022/08/04 12:13:19;;;;;;;8.30;2.92;;;37.90;99.90;;;;;;10435501;28;20567;-84
2022/08/04 12:19:05;;;;;;;3.47;2.97;;;37.60;99.90;;;;;;10463720;28;20196;-81
2022/08/04 12:24:35;;;;;;;8.13;3.25;;;37.80;99.90;;;;;;10490546;28;20223;-82
2022/08/04 12:29:57;;;;;;;7.97;3.20;;;37.90;99.90;;;;;;10476305;28;20199;-81
2022/08/04 12:35:26;;;;;;;3.88;2.80;;;37.90;99.90;;;;;;10493193;28;20254;-81
2022/08/04 12:40:54;;;;;;;23.08;4.53;;;37.90;99.90;;;;;;10477999;28;20283;-81
2022/08/04 12:46:24;;;;;;;6.65;3.17;;;37.80;99.90;;;;;;10462440;28;20421;-82
2022/08/04 12:51:46;;;;;;;4.18;3.38;;;37.40;99.90;;;;;;10461967;28;20519;-83
2022/08/04 12:57:08;;;;;;;6.03;3.90;;;36.70;99.90;;;;;;10458207;28;20214;-88
2022/08/04 13:02:36;;;;;;;4.72;3.45;;;36.50;99.90;;;;;;10462486;28;20199;-83
2022/08/04 13:07:59;;;;;;;4.95;3.00;;;36.90;99.90;;;;;;10474846;28;20224;-81
2022/08/04 13:13:25;;;;;;;4.68;2.92;;;36.80;99.90;;;;;;10475585;28;20239;-86
2022/08/04 13:18:48;;;;;;;3.83;3.40;;;37.00;99.90;;;;;;10475655;28;20204;-85
2022/08/04 13:24:13;;;;;;;8.55;3.15;;;36.50;99.90;;;;;;10452073;28;20538;-84
2022/08/04 13:29:39;;;;;;;3.58;2.58;;;36.60;99.90;;;;;;10464619;28;20196;-85
2022/08/04 13:35:03;;;;;;;5.50;3.13;;;36.70;99.90;;;;;;10475766;28;20199;-83
2022/08/04 13:40:27;;;;;;;4.07;3.30;;;36.60;99.90;;;;;;10446171;28;20220;-84
2022/08/04 13:45:50;;;;;;;2.97;2.78;;;36.40;99.90;;;;;;10474564;28;20440;-87
2022/08/04 13:51:15;;;;;;;4.47;2.97;;;36.20;99.90;;;;;;10474172;28;20200;-89
2022/08/04 13:56:44;;;;;;;12.10;4.22;;;35.80;97.10;;;;;;10450001;28;20524;-84
2022/08/04 14:02:15;;;;;;;5.88;3.17;;;35.80;83.70;;;;;;10450789;28;20231;-82
2022/08/04 14:19:58;;;;;;;4.00;3.20;;;35.10;5.40;;;;;;10461979;28;20319;-80
2022/08/04 14:25:20;;;;;;;7.38;3.53;;;35.00;7.30;;;;;;10499983;28;20460;-79
2022/08/04 14:30:41;;;;;;;4.30;3.40;;;34.80;10.00;;;;;;10452232;28;20196;-83
2022/08/04 14:36:03;;;;;;;6.63;3.22;;;34.80;9.50;;;;;;10474658;28;20188;-82
2022/08/04 14:41:31;;;;;;;6.60;3.38;;;34.60;9.90;;;;;;10431760;28;20197;-83
2022/08/04 14:46:56;;;;;;;4.60;3.03;;;34.30;4.00;;;;;;10432265;28;20231;-84
2022/08/04 14:52:24;;;;;;;4.38;3.63;;;34.50;10.90;;;;;;10432854;28;20195;-82
2022/08/04 14:57:47;;;;;;;5.35;3.40;;;34.40;8.20;;;;;;10472989;28;20423;-82
2022/08/04 15:03:10;;;;;;;4.50;3.45;;;34.10;8.10;;;;;;10493190;28;20261;-81
2022/08/04 15:08:31;;;;;;;3.67;3.15;;;34.00;9.50;;;;;;10486890;28;20456;-81
2022/08/04 15:13:54;;;;;;;4.72;3.30;;;34.00;7.20;;;;;;10439657;28;20215;-82
2022/08/04 15:19:15;;;;;;;9.18;4.25;;;33.80;4.50;;;;;;10444562;28;20231;-82
2022/08/04 15:24:37;;;;;;;6.60;3.75;;;33.60;5.30;;;;;;10453114;28;20230;-81
2022/08/04 15:30:05;;;;;;;5.38;3.38;;;33.60;8.00;;;;;;10440032;28;20208;-82
2022/08/04 15:35:32;;;;;;;7.35;4.65;;;33.70;18.90;;;;;;10468049;28;20550;-81
2022/08/04 15:41:04;;;;;;;7.72;3.67;;;33.50;15.10;;;;;;10471199;28;20387;-81
2022/08/04 15:46:46;;;;;;;19.92;7.22;;;33.30;9.80;;;;;;10469595;28;20248;-80
2022/08/04 15:52:10;;;;;;;7.53;3.55;;;33.20;17.10;;;;;;10443221;28;20197;-82
2022/08/04 15:58:00;;;;;;;7.05;4.18;;;33.20;20.20;;;;;;10469724;28;20474;-82
2022/08/04 16:03:36;;;;;;;10.65;5.20;;;33.10;17.50;;;;;;10469965;28;20238;-81
2022/08/04 16:09:01;;;;;;;10.52;5.95;;;33.00;11.60;;;;;;10483178;28;20441;-81
2022/08/04 16:14:34;;;;;;;4.60;4.03;;;32.90;15.40;;;;;;10468657;28;20200;-80
2022/08/04 16:20:07;;;;;;;6.35;3.47;;;;;;;;;;10480414;28;20246;-80
2022/08/04 16:25:50;;;;;;;3.95;3.55;;;32.70;4.20;;;;;;10475067;28;20234;-80
2022/08/04 16:31:12;;;;;;;4.90;4.07;;;32.60;16.30;;;;;;10481905;28;20187;-81
2022/08/04 16:37:11;;;;;;;6.30;3.75;;;32.40;15.80;;;;;;10498504;28;20202;-80
2022/08/04 16:42:34;;;;;;;5.22;4.35;;;32.30;19.50;;;;;;10499520;28;20617;-81
2022/08/04 16:48:06;;;;;;;5.68;4.35;;;32.20;19.70;;;;;;10486408;28;20250;-80
2022/08/04 16:53:38;;;;;;;5.30;4.25;;;32.10;23.90;;;;;;10467099;28;20283;-80
2022/08/04 16:59:08;;;;;;;6.10;3.97;;;31.90;24.20;;;;;;10456882;28;20508;-80
2022/08/04 17:04:33;;;;;;;4.93;4.35;;;31.70;24.10;;;;;;10465981;28;20192;-80
2022/08/04 17:09:56;;;;;;;4.45;4.03;;;31.70;26.10;;;;;;10462867;28;20202;-80
2022/08/04 17:15:22;;;;;;;5.30;4.00;;;31.50;25.30;;;;;;10441303;28;20211;-80
2022/08/04 17:20:43;;;;;;;8.50;4.40;;;31.30;24.80;;;;;;10469693;28;20231;-80
2022/08/04 17:26:07;;;;;;;7.07;4.93;;;31.10;27.00;;;;;;10496341;28;20421;-80
2022/08/04 17:31:30;;;;;;;7.60;5.22;;;31.00;28.80;;;;;;10479374;28;20263;-80
2022/08/04 17:36:52;;;;;;;7.97;4.65;;;30.80;30.80;;;;;;10465448;28;20199;-80
2022/08/04 17:42:13;;;;;;;6.68;4.50;;;30.90;99.90;;;;;;10498146;28;20207;-80
2022/08/04 17:47:51;;;;;;;4.72;4.20;;;30.70;99.90;;;;;;10479179;28;20243;-81
2022/08/04 17:53:12;;;;;;;5.68;4.47;;;30.50;44.20;;;;;;10464867;28;20207;-80
2022/08/04 17:58:33;;;;;;;5.47;4.55;;;30.30;42.20;;;;;;10464024;28;20368;-80
2022/08/04 18:03:57;;;;;;;5.47;4.40;;;30.20;47.50;;;;;;10479445;28;20385;-80
2022/08/04 18:09:29;;;;;;;5.53;4.90;;;30.00;48.60;;;;;;10478824;28;20215;-80
2022/08/04 18:14:56;;;;;;;6.85;6.18;;;29.90;55.40;;;;;;10465587;28;20218;-80
2022/08/04 18:20:19;;;;;;;6.50;5.85;;;29.80;56.40;;;;;;10474039;28;20240;-80
2022/08/04 18:25:46;;;;;;;6.93;5.78;;;;;;;;;;10474729;28;20220;-80
2022/08/04 18:31:08;;;;;;;8.48;5.28;;;29.50;42.90;;;;;;10477576;28;20207;-80
2022/08/04 18:36:29;;;;;;;8.85;5.05;;;29.30;56.40;;;;;;10482511;28;20200;-80
2022/08/04 18:41:51;;;;;;;6.03;5.03;;;29.10;64.80;;;;;;10477136;28;20195;-81
2022/08/04 18:47:12;;;;;;;9.43;5.65;;;29.00;65.00;;;;;;10463070;28;20284;-80
2022/08/04 18:52:34;;;;;;;8.90;6.00;;;28.90;73.60;;;;;;10477906;28;20195;-80
2022/08/04 18:57:55;;;;;;;7.70;5.28;;;28.70;75.20;;;;;;10476319;28;20371;-80
2022/08/04 19:03:17;;;;;;;6.25;5.57;;;28.60;90.50;;;;;;10462911;28;20486;-80
2022/08/04 19:08:38;;;;;;;6.13;5.53;;;28.40;93.50;;;;;;10461603;28;20227;-80
2022/08/04 19:14:00;;;;;;;6.13;5.40;;;28.30;96.90;;;;;;10462408;28;20230;-81
2022/08/04 19:19:22;;;;;;;11.02;6.25;;;;;;;;;;10462111;28;20239;-80
2022/08/04 19:24:43;;;;;;;6.38;5.75;;;28.00;96.30;;;;;;10479103;28;20203;-81
2022/08/04 19:30:05;;;;;;;6.15;5.63;;;27.90;99.90;;;;;;10470668;28;20200;-81
2022/08/04 19:35:26;;;;;;;6.93;5.35;;;27.80;99.90;;;;;;10470414;28;20191;-80
2022/08/04 19:40:48;;;;;;;5.80;5.20;;;27.70;99.90;;;;;;10442434;28;20188;-81
2022/08/04 19:46:09;;;;;;;15.32;6.03;;;27.60;99.90;;;;;;10459193;28;20273;-80
2022/08/04 19:51:37;;;;;;;8.25;5.93;;;27.50;99.90;;;;;;10442202;28;20279;-80
2022/08/04 19:56:59;;;;;;;8.50;5.82;;;27.40;99.90;;;;;;10480452;28;20210;-80
2022/08/04 20:02:20;;;;;;;8.77;6.47;;;27.30;99.90;;;;;;10483263;28;20413;-80
2022/08/04 20:07:41;;;;;;;8.25;6.75;;;27.20;99.90;;;;;;10468848;28;20228;-80
2022/08/04 20:13:05;;;;;;;9.35;6.95;;;27.10;99.90;;;;;;10499343;28;20211;-80
2022/08/04 20:18:28;;;;;;;8.95;7.50;;;27.00;99.90;;;;;;10468214;28;20243;-81
2022/08/04 20:23:49;;;;;;;8.18;7.10;;;26.90;99.90;;;;;;10479466;28;20219;-80
2022/08/04 20:29:10;;;;;;;8.13;7.20;;;26.80;99.90;;;;;;10481841;28;20440;-80
2022/08/04 20:34:31;;;;;;;9.27;7.05;;;26.70;99.90;;;;;;10460278;28;20200;-81
2022/08/04 20:39:54;;;;;;;9.80;6.68;;;26.60;99.90;;;;;;10441199;28;20189;-80
2022/08/04 20:45:16;;;;;;;9.55;6.28;;;26.30;99.90;;;;;;10440459;28;20223;-81
2022/08/04 20:50:38;;;;;;;8.80;6.90;;;26.30;99.90;;;;;;10426740;28;20208;-81
2022/08/04 20:55:59;;;;;;;8.98;7.10;;;26.20;99.90;;;;;;10475279;28;20275;-81
2022/08/04 21:01:21;;;;;;;8.05;7.25;;;26.20;99.90;;;;;;10482367;28;20192;-82
2022/08/04 21:06:43;;;;;;;9.30;7.20;;;26.00;99.90;;;;;;10482602;28;20392;-81
2022/08/04 21:12:05;;;;;;;10.35;7.93;;;25.90;99.90;;;;;;10481055;28;20494;-80
2022/08/04 21:17:27;;;;;;;9.07;8.02;;;25.90;99.90;;;;;;10480455;28;20470;-80
2022/08/04 21:22:48;;;;;;;9.70;8.27;;;25.70;99.90;;;;;;10480543;28;20195;-81
2022/08/04 21:28:10;;;;;;;11.95;8.05;;;25.60;99.90;;;;;;10500029;28;20265;-80
2022/08/04 21:33:31;;;;;;;8.50;7.60;;;25.60;99.90;;;;;;10465798;28;20487;-80
2022/08/04 21:38:53;;;;;;;8.20;7.45;;;25.50;99.90;;;;;;10480046;28;20192;-80
2022/08/04 21:44:15;;;;;;;8.27;6.95;;;25.50;99.90;;;;;;10480719;28;20346;-80
2022/08/04 21:49:36;;;;;;;8.85;7.30;;;25.40;99.90;;;;;;10478957;28;20219;-80
2022/08/04 21:54:57;;;;;;;7.82;6.57;;;25.40;99.90;;;;;;10465087;28;20195;-81
2022/08/04 22:00:19;;;;;;;9.77;6.65;;;25.30;1.00;;;;;;10479733;28;20192;-80
2022/08/04 22:05:40;;;;;;;7.70;6.60;;;25.30;1.00;;;;;;10478440;28;20223;-81
2022/08/04 22:11:03;;;;;;;9.13;5.60;;;25.30;1.00;;;;;;10495166;28;20204;-80
2022/08/04 22:16:25;;;;;;;6.38;5.78;;;25.20;1.00;;;;;;10463955;28;20196;-81
2022/08/04 22:21:46;;;;;;;6.43;5.82;;;25.20;1.00;;;;;;10482622;28;20270;-82
2022/08/04 22:32:56;;;;;;;6.90;6.20;;;25.00;1.00;;;;;;10393311;28;20201;-80
2022/08/04 22:38:18;;;;;;;6.95;5.63;;;25.00;1.00;;;;;;10362743;28;20492;-80
2022/08/04 22:43:40;;;;;;;9.00;6.35;;;25.00;1.00;;;;;;10376039;28;20205;-80
2022/08/04 22:49:01;;;;;;;6.47;5.82;;;24.90;1.00;;;;;;10375474;28;20423;-80
2022/08/04 22:54:22;;;;;;;7.50;6.13;;;24.90;1.00;;;;;;10392310;28;20240;-80
2022/08/04 22:59:44;;;;;;;26.80;6.90;;;24.80;1.00;;;;;;10351027;28;20206;-81
2022/08/04 23:05:06;;;;;;;6.10;5.50;;;24.70;17.10;;;;;;10352058;28;20224;-81
2022/08/04 23:10:27;;;;;;;7.90;5.82;;;24.70;63.50;;;;;;10476602;28;20226;-80
2022/08/04 23:15:48;;;;;;;9.63;5.53;;;24.60;99.90;;;;;;10476979;28;20237;-82
2022/08/04 23:21:10;;;;;;;10.00;6.18;;;24.60;99.90;;;;;;10471907;28;20525;-80
2022/08/04 23:26:32;;;;;;;9.77;6.03;;;24.50;99.90;;;;;;10438195;28;20416;-81
2022/08/04 23:31:53;;;;;;;10.27;6.20;;;24.40;99.90;;;;;;10421794;28;20190;-81
2022/08/04 23:37:15;;;;;;;7.65;5.50;;;24.30;1.00;;;;;;10421354;28;20204;-81
2022/08/04 23:42:36;;;;;;;9.20;6.60;;;24.20;1.00;;;;;;10437780;28;20483;-80
2022/08/04 23:47:57;;;;;;;7.53;5.85;;;24.10;1.00;;;;;;10444453;28;20511;-81
2022/08/04 23:53:19;;;;;;;13.48;5.65;;;24.10;1.00;;;;;;10493237;28;20230;-80
2022/08/04 23:58:41;;;;;;;6.82;5.50;;;24.00;1.00;;;;;;10476608;28;20198;-80
